Hlavní strana
METAR-TAF:

METAR-TAF

Letiště :

Saint-Étienne, Francie

zeměpisná šířka: 45-32N, zeměpisná délka: 004-18E, výška: 404 m

Aktuální stav počasí

Zpráva byla vytvořena před 37 minutami, v 04:00 UTC
vítr z různých směrů 3 kt
Teplota 9°C
Vlhkost vzduchu 87%
Tlak 1030 hPa
Viditelnost 10 km a více
Žádná oblačnost pod 1500 m, nevyskytují se cumulonimby.

METAR: LFMH 260400Z AUTO VRB03KT CAVOK 09/07 Q1030

Čas: 06:37 (04:37 UTC)


TAF: chybějící

Stav a předpovědi počasí z více než 4 000 letišť (zprávy METAR a TAF).

Červené a žluté tečky na mapě představují dostupné meteorologické stanice.

Když kurzor umístíte na tečku, zobrazí se název stanice.

Pak kliknutím zobrazíte stav a předpověď počasí.

Chcete-li změnit mapu, kliknutím na zelené tlačítko se znaménkem +mapu přiblížíte, kliknutím na zelené tlačítko se znaménkem – mapu oddálíte a kliknutím na zelené šipky přejdete na sousední mapy.


METAR-TAF: